createdAt,value
2022-10-23T00:02:54.635Z,12.52
2022-10-23T00:05:56.360Z,9.65
2022-10-23T00:08:57.923Z,6.03
2022-10-23T00:11:59.434Z,6.85
2022-10-23T00:15:00.864Z,6.70
2022-10-23T00:18:03.631Z,11.10
2022-10-23T00:21:06.832Z,8.25
2022-10-23T00:27:15.589Z,13.70
2022-10-23T00:30:17.077Z,8.75
2022-10-23T00:33:18.793Z,14.18
2022-10-23T00:36:21.561Z,10.60
2022-10-23T00:39:22.989Z,13.10
2022-10-23T00:42:24.609Z,6.93
2022-10-23T00:45:31.599Z,6.72
2022-10-23T00:48:33.081Z,4.75
2022-10-23T00:51:47.340Z,5.78
2022-10-23T00:54:49.194Z,5.63
2022-10-23T00:57:52.100Z,6.78
2022-10-23T01:00:56.357Z,6.50
2022-10-23T01:03:58.083Z,6.53
2022-10-23T01:07:13.815Z,11.32
2022-10-23T01:10:25.846Z,10.10
2022-10-23T01:16:49.959Z,4.65
2022-10-23T01:20:14.164Z,4.03
2022-10-23T01:23:40.680Z,6.55
2022-10-23T01:27:00.616Z,5.30
2022-10-23T01:30:08.719Z,5.55
2022-10-23T01:33:21.951Z,6.05
2022-10-23T01:36:29.471Z,8.23
2022-10-23T01:39:44.770Z,7.13
2022-10-23T01:42:50.531Z,7.40
2022-10-23T01:46:00.803Z,8.45
2022-10-23T01:49:03.694Z,6.95
2022-10-23T01:52:10.429Z,8.30
2022-10-23T01:55:20.108Z,7.00
2022-10-23T01:58:23.007Z,5.13
2022-10-23T02:01:29.233Z,8.13
2022-10-23T02:04:36.264Z,11.63
2022-10-23T02:07:38.153Z,9.65
2022-10-23T02:10:51.639Z,6.22
2022-10-23T02:14:18.859Z,8.45
2022-10-23T02:17:40.562Z,4.85
2022-10-23T02:20:47.930Z,7.43
2022-10-23T02:24:12.118Z,7.30
2022-10-23T02:27:24.899Z,6.25
2022-10-23T02:30:34.381Z,7.30
2022-10-23T02:33:46.217Z,7.38
2022-10-23T02:36:47.716Z,4.68
2022-10-23T02:39:49.460Z,6.13
2022-10-23T02:43:01.413Z,7.45
2022-10-23T02:46:40.025Z,4.70
2022-10-23T02:49:56.159Z,10.35
2022-10-23T02:53:02.187Z,7.15
2022-10-23T02:56:17.767Z,6.60
2022-10-23T02:59:24.734Z,7.40
2022-10-23T03:02:35.770Z,7.05
2022-10-23T03:05:40.611Z,3.83
2022-10-23T03:08:52.563Z,4.05
2022-10-23T03:11:54.041Z,9.73
2022-10-23T03:14:55.457Z,7.30
2022-10-23T03:17:57.013Z,9.50
2022-10-23T03:20:58.414Z,9.57
2022-10-23T03:23:59.965Z,4.60
2022-10-23T03:27:08.033Z,4.85
2022-10-23T03:30:10.147Z,7.97
2022-10-23T03:33:13.906Z,7.03
2022-10-23T03:36:15.356Z,6.63
2022-10-23T03:39:18.897Z,9.20
2022-10-23T03:42:20.367Z,8.40
2022-10-23T03:45:21.809Z,5.00
2022-10-23T03:48:24.761Z,4.05
2022-10-23T03:51:27.443Z,3.20
2022-10-23T03:54:30.004Z,7.30
2022-10-23T03:57:32.212Z,4.13
2022-10-23T04:03:35.854Z,4.25
2022-10-23T04:06:37.429Z,8.20
2022-10-23T04:09:39.263Z,5.43
2022-10-23T04:12:41.003Z,9.07
2022-10-23T04:15:49.314Z,6.97
2022-10-23T04:18:51.940Z,5.85
2022-10-23T04:21:53.340Z,7.38
2022-10-23T04:24:54.786Z,7.40
2022-10-23T04:27:56.215Z,5.30
2022-10-23T04:30:57.750Z,7.30
2022-10-23T04:33:59.321Z,10.15
2022-10-23T04:37:05.157Z,7.38
2022-10-23T04:40:07.400Z,3.95
2022-10-23T04:43:10.808Z,5.38
2022-10-23T04:46:14.526Z,5.10
2022-10-23T04:49:16.005Z,6.30
2022-10-23T04:52:23.799Z,5.90
2022-10-23T04:55:38.164Z,5.30
2022-10-23T04:58:49.487Z,3.87
2022-10-23T05:01:51.136Z,5.82
2022-10-23T05:08:20.584Z,6.80
2022-10-23T05:11:40.455Z,5.75
2022-10-23T05:14:43.629Z,7.00
2022-10-23T05:17:47.778Z,7.22
2022-10-23T05:20:54.192Z,3.97
2022-10-23T05:23:55.697Z,6.32
2022-10-23T05:29:59.201Z,6.75
2022-10-23T05:33:04.241Z,8.10
2022-10-23T05:36:14.017Z,4.35
2022-10-23T05:39:16.569Z,8.52
2022-10-23T05:42:20.005Z,7.93
2022-10-23T05:45:21.759Z,6.18
2022-10-23T05:52:12.753Z,7.95
2022-10-23T05:55:39.756Z,5.75
2022-10-23T05:58:52.209Z,4.43
2022-10-23T06:02:25.920Z,5.95
2022-10-23T06:05:33.657Z,7.03
2022-10-23T06:08:50.768Z,6.50
2022-10-23T06:11:55.319Z,8.30
2022-10-23T06:14:57.853Z,7.03
2022-10-23T06:18:09.477Z,9.50
2022-10-23T06:21:20.805Z,9.48
2022-10-23T06:24:24.981Z,7.88
2022-10-23T06:27:35.287Z,7.82
2022-10-23T06:30:39.578Z,8.60
2022-10-23T06:33:41.068Z,6.53
2022-10-23T06:36:44.928Z,5.72
2022-10-23T06:40:01.593Z,10.10
2022-10-23T06:43:15.965Z,6.38
2022-10-23T06:46:35.547Z,5.97
2022-10-23T06:49:55.779Z,4.05
2022-10-23T06:52:57.401Z,3.72
2022-10-23T06:56:00.537Z,6.93
2022-10-23T06:59:02.306Z,5.68
2022-10-23T07:02:04.835Z,5.85
2022-10-23T07:05:09.886Z,4.13
2022-10-23T07:08:14.850Z,8.68
2022-10-23T07:11:18.953Z,5.57
2022-10-23T07:14:23.603Z,5.85
2022-10-23T07:17:25.165Z,5.32
2022-10-23T07:20:27.634Z,4.30
2022-10-23T07:23:29.030Z,7.40
2022-10-23T07:26:32.563Z,5.85
2022-10-23T07:29:34.357Z,5.53
2022-10-23T07:32:37.392Z,4.22
2022-10-23T07:35:57.537Z,6.13
2022-10-23T07:39:03.348Z,4.10
2022-10-23T07:42:15.469Z,3.13
2022-10-23T07:45:17.272Z,4.40
2022-10-23T07:48:21.748Z,5.28
2022-10-23T07:51:33.152Z,3.75
2022-10-23T07:54:35.447Z,4.50
2022-10-23T07:57:55.591Z,5.63
2022-10-23T08:01:29.211Z,4.82
2022-10-23T08:04:30.833Z,6.78
2022-10-23T08:07:36.242Z,3.13
2022-10-23T08:10:37.835Z,8.00
2022-10-23T08:13:44.246Z,3.30
2022-10-23T08:16:46.574Z,6.22
2022-10-23T08:19:50.804Z,7.18
2022-10-23T08:22:53.914Z,4.65
2022-10-23T08:26:05.248Z,8.90
2022-10-23T08:29:06.744Z,5.88
2022-10-23T08:32:08.139Z,6.65
2022-10-23T08:38:33.707Z,3.97
2022-10-23T08:41:39.088Z,3.75
2022-10-23T08:45:11.884Z,4.43
2022-10-23T08:48:33.067Z,4.53
2022-10-23T08:52:40.265Z,5.13
2022-10-23T08:55:53.127Z,6.53
2022-10-23T08:59:05.478Z,4.03
2022-10-23T09:05:57.969Z,3.30
2022-10-23T09:09:21.678Z,6.10
2022-10-23T09:12:25.413Z,5.53
2022-10-23T09:15:45.684Z,5.32
2022-10-23T09:18:49.645Z,6.18
2022-10-23T09:21:51.158Z,3.85
2022-10-23T09:24:53.910Z,5.20
2022-10-23T09:28:01.504Z,5.97
2022-10-23T09:31:08.620Z,5.38
2022-10-23T09:34:20.242Z,4.18
2022-10-23T09:37:27.899Z,4.90
2022-10-23T09:40:42.960Z,7.05
2022-10-23T09:43:44.399Z,4.30
2022-10-23T09:49:54.973Z,8.02
2022-10-23T09:52:56.979Z,4.82
2022-10-23T09:59:30.018Z,4.65
2022-10-23T10:02:35.411Z,4.78
2022-10-23T10:06:01.635Z,3.28
2022-10-23T10:09:10.499Z,4.60
2022-10-23T10:12:49.343Z,3.33
2022-10-23T10:15:55.372Z,6.07
2022-10-23T10:19:02.923Z,4.88
2022-10-23T10:22:34.748Z,4.60
2022-10-23T10:25:57.299Z,3.47
2022-10-23T10:29:16.814Z,3.85
2022-10-23T10:32:35.642Z,6.57
2022-10-23T10:35:42.814Z,4.07
2022-10-23T10:38:52.872Z,6.85
2022-10-23T10:42:17.140Z,4.78
2022-10-23T10:45:25.341Z,3.42
2022-10-23T10:48:51.702Z,4.28
2022-10-23T10:52:19.889Z,4.13
2022-10-23T10:55:33.809Z,6.97
2022-10-23T10:58:50.679Z,7.45
2022-10-23T11:02:05.665Z,5.03
2022-10-23T11:05:24.875Z,5.32
2022-10-23T11:08:49.864Z,4.40
2022-10-23T11:11:59.624Z,5.40
2022-10-23T11:15:01.341Z,3.45
2022-10-23T11:21:27.208Z,4.53
2022-10-23T11:25:02.916Z,6.25
2022-10-23T11:28:19.411Z,4.68
2022-10-23T11:31:42.411Z,6.95
2022-10-23T11:35:08.798Z,4.72
2022-10-23T11:38:13.347Z,6.60
2022-10-23T11:41:33.807Z,7.57
2022-10-23T11:44:49.219Z,8.25
2022-10-23T11:48:03.058Z,3.92
2022-10-23T11:51:05.342Z,6.55
2022-10-23T11:54:09.928Z,5.10
2022-10-23T11:57:17.189Z,6.75
2022-10-23T12:00:22.132Z,5.60
2022-10-23T12:03:36.353Z,5.20
2022-10-23T12:06:49.699Z,4.53
2022-10-23T12:10:05.962Z,8.30
2022-10-23T12:13:44.795Z,5.70
2022-10-23T12:16:46.294Z,4.78
2022-10-23T12:19:50.577Z,7.55
2022-10-23T12:23:23.365Z,4.68
2022-10-23T12:26:54.466Z,5.30
2022-10-23T12:30:17.100Z,6.60
2022-10-23T12:33:27.495Z,5.45
2022-10-23T12:36:47.945Z,9.20
2022-10-23T12:39:56.555Z,7.10
2022-10-23T12:43:00.699Z,10.93
2022-10-23T12:46:25.931Z,6.20
2022-10-23T12:49:32.047Z,10.95
2022-10-23T12:52:39.537Z,6.25
2022-10-23T12:55:56.306Z,6.20
2022-10-23T12:59:01.917Z,3.75
2022-10-23T13:02:23.062Z,7.30
2022-10-23T13:05:25.504Z,4.90
2022-10-23T13:08:33.056Z,6.72
2022-10-23T13:11:52.364Z,5.50
2022-10-23T13:15:16.481Z,7.00
2022-10-23T13:18:18.282Z,4.82
2022-10-23T13:21:29.042Z,6.13
2022-10-23T13:24:31.509Z,6.22
2022-10-23T13:27:34.260Z,6.47
2022-10-23T13:30:39.732Z,7.47
2022-10-23T13:33:46.575Z,10.02
2022-10-23T13:36:56.247Z,6.30
2022-10-23T13:40:01.894Z,4.40
2022-10-23T13:43:16.258Z,5.25
2022-10-23T13:46:22.811Z,5.97
2022-10-23T13:49:24.327Z,9.60
2022-10-23T13:52:25.859Z,9.43
2022-10-23T13:55:28.223Z,10.05
2022-10-23T13:58:29.722Z,7.85
2022-10-23T14:01:35.967Z,9.73
2022-10-23T14:04:37.765Z,8.85
2022-10-23T14:07:40.146Z,6.60
2022-10-23T14:10:41.714Z,6.32
2022-10-23T14:13:43.687Z,8.35
2022-10-23T14:16:45.162Z,7.07
2022-10-23T14:19:46.847Z,6.00
2022-10-23T14:22:48.467Z,15.82
2022-10-23T14:25:50.017Z,5.45
2022-10-23T14:28:57.536Z,12.00
2022-10-23T14:32:01.050Z,8.77
2022-10-23T14:35:03.947Z,6.57
2022-10-23T14:38:05.502Z,10.63
2022-10-23T14:41:11.997Z,8.48
2022-10-23T14:44:13.632Z,6.65
2022-10-23T14:47:15.684Z,5.53
2022-10-23T14:53:19.030Z,7.70
2022-10-23T14:56:20.577Z,4.50
2022-10-23T14:59:22.050Z,5.80
2022-10-23T15:02:23.685Z,9.60
2022-10-23T15:05:25.289Z,5.20
2022-10-23T15:08:26.886Z,4.65
2022-10-23T15:11:28.979Z,8.05
2022-10-23T15:17:33.987Z,8.07
2022-10-23T15:20:35.443Z,8.10
2022-10-23T15:23:39.815Z,5.68
2022-10-23T15:26:43.339Z,8.90
2022-10-23T15:29:45.202Z,11.27
2022-10-23T15:32:46.809Z,7.57
2022-10-23T15:35:48.890Z,10.43
2022-10-23T15:41:56.602Z,8.03
2022-10-23T15:44:58.072Z,6.88
2022-10-23T15:47:59.532Z,7.65
2022-10-23T15:51:01.010Z,11.35
2022-10-23T15:54:04.076Z,8.68
2022-10-23T15:57:05.655Z,7.28
2022-10-23T16:00:09.811Z,9.77
2022-10-23T16:03:11.229Z,7.07
2022-10-23T16:06:15.632Z,6.65
2022-10-23T16:09:17.255Z,9.13
2022-10-23T16:12:18.717Z,8.93
2022-10-23T16:15:20.325Z,13.32
2022-10-23T16:18:23.063Z,7.40
2022-10-23T16:21:27.448Z,9.60
2022-10-23T16:24:30.300Z,11.45
2022-10-23T16:27:31.844Z,9.40
2022-10-23T16:30:33.377Z,14.98
2022-10-23T16:33:34.931Z,10.90
2022-10-23T16:36:39.039Z,14.02
2022-10-23T16:39:43.696Z,10.63
2022-10-23T16:43:08.373Z,11.00
2022-10-23T16:46:21.687Z,14.63
2022-10-23T16:49:23.450Z,9.20
2022-10-23T16:52:26.957Z,10.85
2022-10-23T16:55:28.821Z,12.55
2022-10-23T16:58:30.417Z,15.52
2022-10-23T17:01:33.115Z,15.23
2022-10-23T17:04:36.153Z,10.88
2022-10-23T17:07:37.818Z,16.25
2022-10-23T17:10:39.366Z,12.90
2022-10-23T17:13:45.823Z,18.95
2022-10-23T17:16:50.308Z,14.93
2022-10-23T17:19:51.878Z,13.10
2022-10-23T17:22:53.443Z,14.40
2022-10-23T17:25:55.931Z,16.00
2022-10-23T17:28:59.057Z,17.23
2022-10-23T17:32:00.873Z,12.98
2022-10-23T17:35:05.417Z,18.40
2022-10-23T17:38:06.921Z,20.08
2022-10-23T17:41:09.302Z,14.25
2022-10-23T17:44:11.662Z,12.98
2022-10-23T17:47:13.449Z,13.30
2022-10-23T17:50:15.134Z,12.55
2022-10-23T17:53:16.666Z,14.52
2022-10-23T17:56:26.887Z,21.10
2022-10-23T17:59:28.446Z,13.63
2022-10-23T18:02:30.079Z,23.45
2022-10-23T18:05:33.065Z,31.00
2022-10-23T18:08:36.716Z,18.23
2022-10-23T18:11:45.307Z,13.18
2022-10-23T18:14:49.296Z,10.48
2022-10-23T18:17:50.787Z,18.08
2022-10-23T18:20:52.470Z,12.98
2022-10-23T18:23:54.660Z,17.65
2022-10-23T18:26:56.297Z,13.45
2022-10-23T18:29:58.303Z,13.93
2022-10-23T18:32:59.957Z,15.07
2022-10-23T18:36:01.573Z,16.35
2022-10-23T18:39:05.045Z,16.10
2022-10-23T18:42:06.603Z,13.10
2022-10-23T18:45:11.904Z,13.82
2022-10-23T18:48:13.547Z,15.98
2022-10-23T18:51:23.419Z,23.38
2022-10-23T18:54:25.017Z,16.15
2022-10-23T18:57:26.563Z,20.52
2022-10-23T19:00:28.228Z,13.75
2022-10-23T19:03:29.708Z,14.75
2022-10-23T19:06:32.079Z,14.50
2022-10-23T19:09:33.640Z,17.70
2022-10-23T19:12:35.234Z,17.48
2022-10-23T19:15:37.398Z,17.38
2022-10-23T19:18:43.029Z,19.38
2022-10-23T19:21:45.402Z,17.45
2022-10-23T19:24:56.246Z,21.45
2022-10-23T19:27:58.982Z,15.90
2022-10-23T19:31:00.960Z,13.82
2022-10-23T19:34:02.685Z,13.45
2022-10-23T19:37:04.387Z,18.10
2022-10-23T19:40:07.869Z,15.05
2022-10-23T19:43:09.377Z,15.68
2022-10-23T19:46:12.384Z,15.27
2022-10-23T19:49:14.204Z,16.88
2022-10-23T19:52:15.665Z,17.08
2022-10-23T19:55:17.205Z,15.77
2022-10-23T19:58:18.812Z,20.30
2022-10-23T20:01:24.619Z,19.52
2022-10-23T20:04:26.952Z,20.90
2022-10-23T20:07:28.425Z,19.95
2022-10-23T20:10:29.823Z,19.85
2022-10-23T20:13:31.302Z,42.03
2022-10-23T20:16:36.025Z,28.00
2022-10-23T20:19:37.497Z,17.40
2022-10-23T20:22:40.657Z,22.30
2022-10-23T20:25:44.511Z,16.65
2022-10-23T20:28:48.293Z,19.30
2022-10-23T20:31:49.956Z,19.40
2022-10-23T20:34:52.612Z,18.23
2022-10-23T20:37:53.992Z,32.25
2022-10-23T20:40:57.611Z,13.35
2022-10-23T20:44:00.232Z,16.23
2022-10-23T20:47:01.832Z,19.25
2022-10-23T20:50:03.521Z,20.25
2022-10-23T20:53:05.797Z,11.60
2022-10-23T20:56:15.847Z,20.77
2022-10-23T20:59:18.619Z,17.05
2022-10-23T21:02:20.132Z,11.27
2022-10-23T21:05:21.821Z,14.57
2022-10-23T21:08:23.247Z,9.85
2022-10-23T21:11:25.534Z,13.07
2022-10-23T21:14:27.270Z,12.23
2022-10-23T21:17:35.474Z,11.10
2022-10-23T21:20:37.340Z,10.55
2022-10-23T21:23:38.949Z,8.23
2022-10-23T21:26:40.426Z,9.23
2022-10-23T21:29:42.010Z,14.68
2022-10-23T21:32:43.476Z,12.50
2022-10-23T21:35:57.835Z,11.43
2022-10-23T21:39:06.193Z,10.13
2022-10-23T21:42:07.883Z,9.65
2022-10-23T21:45:09.616Z,11.10
2022-10-23T21:48:11.142Z,8.98
2022-10-23T21:51:24.925Z,9.75
2022-10-23T21:54:26.513Z,11.48
2022-10-23T21:57:33.270Z,16.60
2022-10-23T22:00:34.753Z,15.43
2022-10-23T22:03:36.254Z,15.45
2022-10-23T22:06:38.753Z,9.90
2022-10-23T22:09:40.557Z,13.70
2022-10-23T22:12:41.997Z,11.02
2022-10-23T22:18:50.005Z,11.18
2022-10-23T22:21:51.692Z,16.85
2022-10-23T22:24:53.123Z,10.70
2022-10-23T22:27:54.522Z,10.80
2022-10-23T22:30:55.937Z,17.92
2022-10-23T22:33:58.796Z,9.98
2022-10-23T22:37:00.231Z,10.13
2022-10-23T22:40:02.337Z,10.65
2022-10-23T22:43:03.885Z,15.05
2022-10-23T22:46:14.197Z,17.63
2022-10-23T22:49:15.729Z,12.18
2022-10-23T22:52:17.179Z,11.77
2022-10-23T22:55:18.576Z,12.85
2022-10-23T22:58:20.615Z,13.40
2022-10-23T23:01:26.310Z,17.67
2022-10-23T23:04:43.107Z,15.43
2022-10-23T23:07:44.767Z,16.27
2022-10-23T23:10:53.816Z,12.75
2022-10-23T23:13:55.402Z,14.50
2022-10-23T23:16:56.797Z,16.40
2022-10-23T23:19:58.218Z,16.63
2022-10-23T23:22:59.621Z,16.02
2022-10-23T23:26:05.531Z,15.57
2022-10-23T23:29:06.981Z,16.05
2022-10-23T23:32:08.480Z,14.07
2022-10-23T23:35:10.020Z,12.68
2022-10-23T23:38:12.867Z,17.95
2022-10-23T23:41:16.137Z,21.13
2022-10-23T23:44:17.503Z,14.45
2022-10-23T23:47:18.977Z,15.60
2022-10-23T23:50:20.517Z,16.55
2022-10-23T23:53:21.999Z,15.85
2022-10-23T23:56:23.375Z,18.05
2022-10-23T23:59:24.820Z,16.70
